This is the latest recevied weather packets stored in our database for station/object KO4IDC-13. If no packets are shown the sender has not sent any weather packets the latest 10 day(s).
| Time | Temp. | Humidity | Pressure | Rain* | Wind** | Luminosity | Snow |
|---|---|---|---|---|---|---|---|
| 1778009098 | 16.11° C | 95% | 1010.2 hPa | 0 mm | - | 100 W/m² | - |
| 1778008794 | 16.11° C | 95% | 1010.4 hPa | 0 mm | - | 43 W/m² | - |
| 1778008493 | 16.67° C | 96% | 1010.5 hPa | 0 mm | - | 56 W/m² | - |
| 1778008190 | 16.11° C | 96% | 1010.4 hPa | 0 mm | - | 122 W/m² | - |
| 1778007885 | 16.67° C | 96% | 1010.7 hPa | 0 mm | - | 75 W/m² | - |
| 1778007580 | 16.67° C | 96% | 1010.9 hPa | 0 mm | - | 71 W/m² | - |
| 1778007278 | 16.67° C | 96% | 1010.7 hPa | 0 mm | - | 125 W/m² | - |
| 1778006974 | 16.67° C | 96% | 1010.8 hPa | 0 mm | - | 111 W/m² | - |
| 1778006671 | 16.67° C | 96% | 1010.8 hPa | 0 mm | - | 103 W/m² | - |
| 1778006368 | 16.67° C | 96% | 1010.8 hPa | 0 mm | - | 102 W/m² | - |
| 1778006065 | 16.67° C | 96% | 1010.8 hPa | 0 mm | - | 204 W/m² | - |
| 1778005761 | 16.67° C | 96% | 1010.8 hPa | 0 mm | - | 110 W/m² | - |
| 1778005458 | 16.67° C | 96% | 1010.7 hPa | 0 mm | - | 142 W/m² | - |
| 1778005155 | 16.67° C | 97% | 1010.8 hPa | 0 mm | - | 215 W/m² | - |
| 1778004852 | 16.67° C | 96% | 1010.6 hPa | 0 mm | - | 263 W/m² | - |
| 1778004549 | 16.11° C | 96% | 1010.9 hPa | 0 mm | - | 223 W/m² | - |
| 1778004245 | 16.11° C | 96% | 1010.9 hPa | 0 mm | - | 180 W/m² | - |
| 1778003942 | 16.11° C | 96% | 1011.1 hPa | 1.78 mm | - | 96 W/m² | - |
| 1778003638 | 16.11° C | 96% | 1011.2 hPa | 1.78 mm | - | 107 W/m² | - |
| 1778003334 | 16.11° C | 96% | 1011.2 hPa | 0 mm | - | 86 W/m² | - |
| 1778003032 | 16.11° C | 96% | 1011.3 hPa | 0 mm | - | 98 W/m² | - |
| 1778002728 | 16.11° C | 96% | 1011.3 hPa | 0 mm | - | 76 W/m² | - |
| 1778002425 | 16.11° C | 96% | 1011.1 hPa | 0 mm | - | 122 W/m² | - |
| 1778002122 | 16.11° C | 96% | 1011.1 hPa | 0 mm | - | 111 W/m² | - |
| 1778001820 | 16.11° C | 96% | 1011.1 hPa | 1.27 mm | - | 141 W/m² | - |
* Rain latest hour (hover to see other rain measurements)
** Current wind speed in m/s (hover to see current wind gust speed)